Time;durP1;ratioP1;P1;durP2;ratioP2;P2;SDS_P1;SDS_P2;PMS_P1;PMS_P2;Temp;Humidity;BMP_temperature;BMP_pressure;BME280_temperature;BME280_humidity;BME280_pressure;Samples;Min_cycle;Max_cycle;Signal;HPM_P1;HPM_P2
2022/07/05 00:12:08;;;;;;;4.47;4.27;;;18.60;99.90;;;;;;5037033;28;20501;-96
2022/07/05 00:14:39;;;;;;;4.90;4.60;;;19.20;99.90;;;;;;5040849;28;20458;-96
2022/07/05 00:57:02;;;;;;;5.57;5.17;;;17.80;99.90;;;;;;646281;23;20749;-95
2022/07/05 00:59:30;;;;;;;4.80;4.50;;;17.70;99.90;;;;;;4977490;28;20566;-96
2022/07/05 01:01:57;;;;;;;6.13;5.50;;;18.30;99.90;;;;;;4970853;28;20548;-96
2022/07/05 01:04:28;;;;;;;6.13;5.30;;;18.20;99.90;;;;;;4992815;28;20441;-96
2022/07/05 01:06:54;;;;;;;5.53;5.13;;;17.30;99.90;;;;;;4968075;28;20484;-96
2022/07/05 01:09:24;;;;;;;4.97;4.67;;;17.30;99.90;;;;;;4977908;28;20449;-96
2022/07/05 01:17:05;;;;;;;5.80;5.23;;;17.10;99.90;;;;;;5042217;22;20492;-96
2022/07/05 01:59:07;;;;;;;5.00;4.70;;;17.20;99.90;;;;;;5008469;28;20472;-96
2022/07/05 02:01:34;;;;;;;5.67;5.27;;;17.60;99.90;;;;;;5006392;28;20442;-96
2022/07/05 02:06:37;;;;;;;6.83;5.47;;;17.30;99.90;;;;;;5475397;23;20500;-96
2022/07/05 02:22:04;;;;;;;4.97;4.67;;;17.00;99.90;;;;;;4981597;28;20483;-96
2022/07/05 02:24:30;;;;;;;5.47;5.10;;;16.70;99.90;;;;;;4969808;28;20445;-96
2022/07/05 02:27:00;;;;;;;5.70;5.10;;;17.00;99.90;;;;;;4969899;28;20192;-96
2022/07/05 02:29:29;;;;;;;5.43;4.97;;;17.50;99.90;;;;;;4990965;28;20456;-96
2022/07/05 02:31:55;;;;;;;5.70;5.30;;;17.00;99.90;;;;;;4975870;28;23033;-96
2022/07/05 02:34:23;;;;;;;6.23;5.73;;;17.20;99.90;;;;;;4984130;28;20519;-96
2022/07/05 02:37:01;;;;;;;6.10;5.67;;;18.60;99.90;;;;;;4993691;28;20194;-96
2022/07/05 02:39:26;;;;;;;5.87;5.30;;;17.00;99.90;;;;;;4973816;28;20535;-96
2022/07/05 02:41:52;;;;;;;5.27;4.70;;;15.90;99.90;;;;;;4985069;28;20448;-96
2022/07/05 02:44:18;;;;;;;5.07;4.77;;;17.30;99.90;;;;;;5001424;28;20205;-96
2022/07/05 02:46:44;;;;;;;5.70;5.20;;;17.60;99.90;;;;;;4978653;28;20204;-96
2022/07/05 02:49:09;;;;;;;5.60;5.10;;;15.50;99.90;;;;;;4971010;28;20444;-96
2022/07/05 02:51:35;;;;;;;5.07;4.50;;;15.90;99.90;;;;;;4976998;28;20205;-96
2022/07/05 02:54:00;;;;;;;4.77;4.47;;;18.30;99.90;;;;;;4969570;28;20226;-96
2022/07/05 02:56:26;;;;;;;5.37;4.87;;;18.20;99.90;;;;;;4977556;28;20902;-96
2022/07/05 02:58:53;;;;;;;6.03;5.10;;;16.90;99.90;;;;;;4976985;28;20186;-96
2022/07/05 03:01:19;;;;;;;5.13;4.73;;;17.30;99.90;;;;;;5000677;28;20216;-96
2022/07/05 03:03:47;;;;;;;5.20;4.80;;;15.00;99.90;;;;;;5002809;28;20567;-96
2022/07/05 03:06:13;;;;;;;5.90;5.30;;;17.90;99.90;;;;;;4993603;28;20198;-96
2022/07/05 03:08:40;;;;;;;7.37;4.80;;;17.30;99.90;;;;;;5000240;28;20531;-96
2022/07/05 03:11:12;;;;;;;5.27;4.93;;;17.50;99.90;;;;;;4986176;28;20320;-96
2022/07/05 03:13:38;;;;;;;5.00;4.70;;;16.90;99.90;;;;;;4979862;28;20810;-96
2022/07/05 03:16:07;;;;;;;5.33;4.97;;;16.40;99.90;;;;;;5004743;28;20483;-96
2022/07/05 03:18:38;;;;;;;5.60;5.30;;;17.00;99.90;;;;;;4994798;28;20220;-96
2022/07/05 03:21:07;;;;;;;5.73;5.30;;;17.20;99.90;;;;;;4989888;28;21006;-96
2022/07/05 03:23:32;;;;;;;5.07;4.63;;;18.70;99.90;;;;;;4978201;28;20439;-96
2022/07/05 03:25:58;;;;;;;6.13;5.73;;;18.40;99.90;;;;;;4984535;28;20197;-96
2022/07/05 03:28:24;;;;;;;5.43;4.93;;;17.00;99.90;;;;;;4976974;28;20182;-96
2022/07/05 03:30:49;;;;;;;5.43;5.07;;;16.40;99.90;;;;;;4969776;28;20267;-96
2022/07/05 03:33:15;;;;;;;5.37;4.97;;;17.60;99.90;;;;;;4982147;28;20189;-95
2022/07/05 03:35:40;;;;;;;6.03;5.40;;;17.40;99.90;;;;;;4997904;28;20205;-96
2022/07/05 03:38:06;;;;;;;5.77;5.27;;;16.80;99.90;;;;;;4972772;28;20651;-96
2022/07/05 03:40:36;;;;;;;6.27;5.77;;;16.80;99.90;;;;;;4973634;28;20178;-96
2022/07/05 03:43:01;;;;;;;5.70;5.30;;;16.20;99.90;;;;;;4988125;28;20429;-96
2022/07/05 03:45:27;;;;;;;5.73;5.23;;;16.30;99.90;;;;;;4987682;28;21029;-96
2022/07/05 03:50:37;;;;;;;5.43;4.93;;;16.10;99.90;;;;;;5001282;28;20475;-96
2022/07/05 03:53:11;;;;;;;5.70;5.30;;;16.00;99.90;;;;;;5001237;28;20440;-96
2022/07/05 03:55:43;;;;;;;6.10;5.60;;;16.10;99.90;;;;;;4996240;28;20437;-96
2022/07/05 03:58:19;;;;;;;5.97;5.57;;;15.10;99.90;;;;;;4999818;28;20472;-96
2022/07/05 04:00:52;;;;;;;5.70;5.20;;;16.30;99.90;;;;;;5202304;23;20446;-96
2022/07/05 04:04:00;;;;;;;5.80;5.40;;;17.10;99.90;;;;;;5195759;22;20491;-96
2022/07/05 04:06:33;;;;;;;6.17;5.67;;;17.40;99.90;;;;;;4981270;28;20523;-96
2022/07/05 04:08:58;;;;;;;7.30;4.70;;;17.90;99.90;;;;;;4982972;28;20440;-96
2022/07/05 04:11:24;;;;;;;5.73;5.23;;;18.40;99.90;;;;;;4975065;28;20541;-96
2022/07/05 04:13:49;;;;;;;6.20;5.70;;;17.20;99.90;;;;;;4979578;28;20178;-96
2022/07/05 04:16:15;;;;;;;5.87;5.40;;;15.40;99.90;;;;;;4968297;28;20204;-96
2022/07/05 04:18:40;;;;;;;5.60;5.20;;;17.10;99.90;;;;;;4973440;28;20182;-96
2022/07/05 04:21:22;;;;;;;5.73;5.27;;;16.70;99.90;;;;;;4978016;28;20186;-96
2022/07/05 04:23:48;;;;;;;5.97;5.40;;;14.80;99.90;;;;;;4989223;28;20436;-96
2022/07/05 04:26:13;;;;;;;5.13;4.10;;;17.10;99.90;;;;;;4984062;28;20495;-96
2022/07/05 04:28:39;;;;;;;5.57;5.20;;;17.50;99.90;;;;;;4978260;28;20181;-95
2022/07/05 04:31:04;;;;;;;5.93;5.53;;;17.70;99.90;;;;;;4976106;28;20225;-96
2022/07/05 04:33:53;;;;;;;5.87;5.43;;;17.30;99.90;;;;;;5166942;23;20233;-96
2022/07/05 04:36:24;;;;;;;5.87;5.37;;;16.30;99.90;;;;;;5004400;28;20209;-96
2022/07/05 04:38:50;;;;;;;5.87;5.07;;;17.30;99.90;;;;;;5027106;28;20462;-96
2022/07/05 04:54:47;;;;;;;4.73;4.43;;;16.50;99.90;;;;;;5055355;22;20484;-96
2022/07/05 04:57:13;;;;;;;5.43;4.93;;;16.70;99.90;;;;;;4996838;28;20460;-96
2022/07/05 04:59:38;;;;;;;4.80;4.50;;;18.70;99.90;;;;;;4996156;28;20444;-96
2022/07/05 05:02:04;;;;;;;4.80;4.40;;;18.40;99.90;;;;;;5004216;28;20185;-96
2022/07/05 05:07:23;;;;;;;4.87;4.40;;;17.00;99.90;;;;;;5871745;23;20471;-95
2022/07/05 05:09:49;;;;;;;4.47;4.17;;;18.10;99.90;;;;;;5004380;28;20454;-96
2022/07/05 05:22:31;;;;;;;5.00;4.70;;;16.80;99.90;;;;;;5008870;28;20479;-96
2022/07/05 05:24:59;;;;;;;5.13;4.70;;;18.20;99.90;;;;;;5010984;28;20440;-96
2022/07/05 05:27:49;;;;;;;5.47;5.07;;;17.20;99.90;;;;;;5013793;28;20189;-96
2022/07/05 05:30:19;;;;;;;5.10;4.60;;;17.40;99.90;;;;;;5015843;28;20538;-96
2022/07/05 05:32:47;;;;;;;5.77;5.23;;;17.30;99.90;;;;;;5009310;28;20460;-96
2022/07/05 05:35:20;;;;;;;5.17;4.40;;;17.30;99.90;;;;;;5024547;28;20448;-96
2022/07/05 05:37:52;;;;;;;4.80;4.37;;;17.20;99.90;;;;;;5014171;28;20491;-96
2022/07/05 05:40:19;;;;;;;5.20;4.80;;;18.70;99.90;;;;;;5013888;28;20451;-96
2022/07/05 05:42:46;;;;;;;4.90;4.57;;;17.80;99.90;;;;;;5012362;28;20453;-96
2022/07/05 05:45:14;;;;;;;5.10;4.63;;;17.70;99.90;;;;;;5006127;28;21012;-96
2022/07/05 05:47:49;;;;;;;6.10;4.97;;;18.30;99.90;;;;;;5008470;28;20208;-96
2022/07/05 05:50:41;;;;;;;4.83;4.53;;;17.50;99.90;;;;;;5005910;28;21724;-96
2022/07/05 05:53:07;;;;;;;4.63;4.33;;;17.60;99.90;;;;;;5033609;28;20459;-95
2022/07/05 05:55:33;;;;;;;5.20;4.80;;;17.50;99.90;;;;;;5021095;28;20563;-96
2022/07/05 05:58:17;;;;;;;5.30;4.80;;;17.70;99.90;;;;;;5010402;28;21072;-96
2022/07/05 06:00:52;;;;;;;4.60;4.20;;;17.70;99.90;;;;;;5014460;28;20192;-96
2022/07/05 06:03:32;;;;;;;4.73;4.33;;;17.70;99.90;;;;;;5009066;28;20459;-96
2022/07/05 06:05:58;;;;;;;4.67;4.37;;;17.70;99.90;;;;;;5004265;28;20440;-96
2022/07/05 06:08:26;;;;;;;4.93;4.23;;;18.10;99.90;;;;;;5007944;28;20208;-96
2022/07/05 06:10:52;;;;;;;4.90;4.33;;;17.80;99.90;;;;;;5023047;28;20213;-96
2022/07/05 06:18:28;;;;;;;4.80;4.40;;;18.30;99.90;;;;;;5398102;23;21748;-96
2022/07/05 06:20:53;;;;;;;5.77;5.27;;;18.50;99.90;;;;;;4976354;28;20854;-91
2022/07/05 06:23:19;;;;;;;5.10;4.60;;;17.60;99.90;;;;;;4959452;28;20190;-91
2022/07/05 06:25:45;;;;;;;4.63;4.10;;;18.40;99.90;;;;;;4967974;28;21755;-90
2022/07/05 06:28:10;;;;;;;4.30;4.00;;;18.60;99.90;;;;;;4980081;28;20648;-90
2022/07/05 06:30:44;;;;;;;5.27;4.33;;;18.40;99.90;;;;;;4965769;28;20214;-94
2022/07/05 06:33:09;;;;;;;4.73;4.07;;;18.60;99.90;;;;;;4970178;28;20182;-90
2022/07/05 06:35:36;;;;;;;4.17;3.87;;;18.60;99.90;;;;;;4970575;28;20455;-91
2022/07/05 06:38:06;;;;;;;4.53;4.30;;;19.30;99.90;;;;;;4967889;28;20221;-92
2022/07/05 06:40:44;;;;;;;5.47;4.63;;;18.70;99.90;;;;;;4966356;28;21100;-91
2022/07/05 06:43:15;;;;;;;5.43;4.57;;;18.70;99.90;;;;;;4966975;28;20453;-88
2022/07/05 06:45:40;;;;;;;6.20;4.60;;;18.80;99.90;;;;;;4944032;28;20467;-92
2022/07/05 06:48:12;;;;;;;5.20;4.90;;;18.70;99.90;;;;;;4961661;28;20448;-92
2022/07/05 06:51:02;;;;;;;6.80;4.17;;;18.90;99.90;;;;;;4970106;28;20300;-91
2022/07/05 06:53:28;;;;;;;4.40;4.00;;;19.00;99.90;;;;;;4964278;28;20447;-90
2022/07/05 06:55:54;;;;;;;4.87;4.57;;;19.10;99.90;;;;;;4956190;28;20839;-91
2022/07/05 06:58:19;;;;;;;4.27;3.97;;;19.10;99.90;;;;;;4967548;28;20380;-91
2022/07/05 07:00:54;;;;;;;4.23;3.90;;;20.30;99.90;;;;;;4953784;28;20178;-91
2022/07/05 07:03:20;;;;;;;4.67;4.37;;;19.20;99.90;;;;;;4966678;28;20193;-92
2022/07/05 07:05:45;;;;;;;4.27;3.87;;;19.50;99.90;;;;;;4965543;28;20696;-92
2022/07/05 07:10:59;;;;;;;4.30;4.00;;;19.60;99.90;;;;;;4980997;28;20250;-90
2022/07/05 07:13:24;;;;;;;4.80;3.93;;;19.50;99.90;;;;;;4971820;28;20428;-90
2022/07/05 07:15:50;;;;;;;3.80;3.50;;;19.60;99.90;;;;;;4978747;28;20452;-90
2022/07/05 07:18:18;;;;;;;6.97;4.77;;;19.80;99.90;;;;;;4965839;28;20240;-92
2022/07/05 07:20:43;;;;;;;4.47;4.00;;;19.90;99.90;;;;;;4977145;28;20185;-91
2022/07/05 07:23:09;;;;;;;4.00;3.50;;;19.70;99.90;;;;;;4971422;28;20444;-90
2022/07/05 07:25:34;;;;;;;5.93;3.80;;;19.60;99.90;;;;;;4979883;28;20173;-90
2022/07/05 07:28:00;;;;;;;7.20;3.73;;;19.80;99.90;;;;;;4975595;28;20238;-91
2022/07/05 07:30:28;;;;;;;3.90;3.60;;;19.90;99.90;;;;;;4993762;28;20170;-91
2022/07/05 07:32:53;;;;;;;4.03;3.73;;;19.90;99.90;;;;;;4971448;28;20555;-92
2022/07/05 07:35:20;;;;;;;3.80;3.50;;;20.10;99.90;;;;;;4978044;28;20428;-91
2022/07/05 07:37:46;;;;;;;3.30;3.10;;;19.90;99.90;;;;;;4968447;28;20201;-90
2022/07/05 07:40:13;;;;;;;7.00;3.23;;;20.00;99.90;;;;;;4973692;28;20428;-90
2022/07/05 07:43:04;;;;;;;3.40;3.20;;;20.40;99.90;;;;;;4982376;28;20499;-96
2022/07/05 07:45:35;;;;;;;3.20;3.00;;;20.70;99.90;;;;;;4991402;28;20433;-96
2022/07/05 07:48:00;;;;;;;3.93;3.07;;;20.50;99.90;;;;;;4980522;28;20511;-96
2022/07/05 08:03:32;;;;;;;3.80;3.50;;;21.30;99.90;;;;;;5035301;28;20473;-95
2022/07/05 08:06:03;;;;;;;3.80;3.27;;;21.60;99.90;;;;;;5014373;28;22632;-89
2022/07/05 08:08:34;;;;;;;7.00;3.47;;;21.60;99.00;;;;;;5013598;28;20531;-89
2022/07/05 08:11:00;;;;;;;3.10;2.90;;;21.50;99.30;;;;;;5012467;28;20459;-89
2022/07/05 08:13:26;;;;;;;3.20;3.00;;;21.10;99.10;;;;;;5010543;28;20469;-88
2022/07/05 08:15:52;;;;;;;2.87;2.53;;;22.50;99.30;;;;;;5011120;28;20461;-88
2022/07/05 08:23:46;;;;;;;2.63;2.10;;;22.10;99.70;;;;;;5024625;28;20492;-88
2022/07/05 08:26:11;;;;;;;4.20;2.40;;;22.40;97.60;;;;;;5008099;28;20492;-89
2022/07/05 08:28:37;;;;;;;2.40;2.00;;;22.00;97.90;;;;;;5012151;28;20208;-89
2022/07/05 08:31:02;;;;;;;4.03;2.60;;;23.20;98.10;;;;;;5017729;28;20212;-90
2022/07/05 08:33:35;;;;;;;4.20;2.40;;;22.50;96.60;;;;;;5009935;28;20191;-88
2022/07/05 08:36:10;;;;;;;2.50;2.17;;;23.20;97.40;;;;;;4988603;28;20185;-91
2022/07/05 08:38:35;;;;;;;2.40;2.10;;;21.90;98.70;;;;;;4991022;28;20465;-88
2022/07/05 08:41:02;;;;;;;4.77;2.30;;;23.20;96.60;;;;;;5019633;28;20455;-89
2022/07/05 08:43:28;;;;;;;3.60;2.30;;;21.60;94.80;;;;;;5000480;28;20558;-88
2022/07/05 08:45:56;;;;;;;2.53;2.33;;;22.00;96.50;;;;;;5007189;28;21332;-89
2022/07/05 08:48:24;;;;;;;2.10;2.00;;;22.20;96.50;;;;;;5021709;28;20431;-89
2022/07/05 08:50:51;;;;;;;3.53;2.30;;;22.80;95.40;;;;;;5018733;28;20513;-89
2022/07/05 08:53:19;;;;;;;2.30;2.00;;;22.50;93.10;;;;;;5021904;28;20786;-88
2022/07/05 08:55:45;;;;;;;3.97;2.40;;;22.50;92.60;;;;;;5005578;28;20795;-88
2022/07/05 08:58:25;;;;;;;2.30;2.10;;;22.40;92.60;;;;;;5004754;28;20570;-87
2022/07/05 09:00:56;;;;;;;2.20;2.00;;;22.40;93.60;;;;;;5006438;28;21015;-90
2022/07/05 09:03:25;;;;;;;3.33;2.00;;;23.20;92.50;;;;;;5004107;28;20454;-89
2022/07/05 09:05:59;;;;;;;3.33;2.00;;;23.50;92.50;;;;;;4998512;28;20786;-89
2022/07/05 09:08:26;;;;;;;4.50;2.80;;;22.90;92.50;;;;;;5004956;28;20849;-89
2022/07/05 09:10:53;;;;;;;4.00;2.20;;;23.40;92.60;;;;;;5005684;28;20463;-89
2022/07/05 09:13:18;;;;;;;2.70;2.07;;;23.30;93.30;;;;;;4999984;28;20871;-89
2022/07/05 09:15:44;;;;;;;2.40;2.20;;;22.40;91.80;;;;;;5005273;28;20431;-89
2022/07/05 09:18:36;;;;;;;3.07;2.07;;;23.40;93.20;;;;;;4996294;28;20668;-88
2022/07/05 09:21:49;;;;;;;3.20;2.17;;;22.30;92.40;;;;;;5003635;28;20277;-89
2022/07/05 09:24:17;;;;;;;3.27;2.00;;;23.50;90.80;;;;;;4949874;28;20447;-96
2022/07/05 09:26:46;;;;;;;2.83;1.83;;;23.70;90.00;;;;;;5009193;28;20457;-96
2022/07/05 09:29:17;;;;;;;2.20;2.00;;;23.70;90.40;;;;;;5007933;28;20445;-92
2022/07/05 09:31:46;;;;;;;2.90;2.10;;;23.80;90.60;;;;;;5019522;28;20475;-91
2022/07/05 09:34:17;;;;;;;1.90;1.80;;;25.20;90.50;;;;;;5041613;28;20693;-89
2022/07/05 09:37:01;;;;;;;4.53;2.20;;;24.20;91.00;;;;;;5057843;28;20427;-88
2022/07/05 09:39:30;;;;;;;3.67;2.30;;;23.30;89.80;;;;;;5012342;28;20782;-87
2022/07/05 09:42:14;;;;;;;2.27;2.07;;;24.00;92.30;;;;;;5022055;28;20439;-89
2022/07/05 09:44:59;;;;;;;2.30;1.90;;;23.60;92.10;;;;;;5017739;28;20443;-90
2022/07/05 09:47:29;;;;;;;2.40;2.20;;;24.70;94.40;;;;;;5001358;28;20474;-89
2022/07/05 09:50:03;;;;;;;5.10;1.73;;;25.00;93.70;;;;;;5004175;28;20441;-89
2022/07/05 09:52:30;;;;;;;2.90;2.40;;;25.50;91.10;;;;;;5020945;28;20523;-89
2022/07/05 09:55:05;;;;;;;2.37;2.27;;;26.40;90.60;;;;;;5016579;28;20457;-87
2022/07/05 09:57:32;;;;;;;3.73;2.40;;;25.50;89.40;;;;;;5017335;28;20925;-88
2022/07/05 10:00:03;;;;;;;3.17;2.47;;;26.70;91.40;;;;;;5010241;28;20447;-89
2022/07/05 10:02:44;;;;;;;3.80;2.33;;;25.60;88.80;;;;;;5018399;28;20976;-88
2022/07/05 10:05:30;;;;;;;2.40;2.20;;;25.20;89.90;;;;;;5006275;28;20560;-87
2022/07/05 10:08:05;;;;;;;2.40;2.20;;;25.80;86.30;;;;;;5001781;28;20830;-90
2022/07/05 10:10:33;;;;;;;2.00;1.90;;;25.80;87.40;;;;;;4989149;28;20458;-89
2022/07/05 10:13:08;;;;;;;2.53;2.33;;;26.00;90.30;;;;;;5014086;28;24566;-89
2022/07/05 10:15:50;;;;;;;2.40;2.20;;;26.70;88.90;;;;;;4984114;28;20877;-96
2022/07/05 10:18:31;;;;;;;1.90;1.73;;;26.90;83.90;;;;;;5012561;28;20844;-90
2022/07/05 10:20:59;;;;;;;3.47;2.23;;;27.20;81.00;;;;;;4993072;28;20434;-89
2022/07/05 10:23:26;;;;;;;2.50;1.90;;;27.20;85.30;;;;;;5011917;28;20779;-91
2022/07/05 10:25:53;;;;;;;2.10;1.90;;;25.70;83.40;;;;;;5003507;28;20470;-87
2022/07/05 10:28:52;;;;;;;2.30;1.60;;;25.60;87.60;;;;;;5021392;28;20446;-87
2022/07/05 10:31:18;;;;;;;1.90;1.80;;;26.70;81.50;;;;;;5037343;28;20463;-88
2022/07/05 10:34:07;;;;;;;2.17;2.07;;;26.40;80.60;;;;;;5006856;28;20435;-88
2022/07/05 10:36:37;;;;;;;1.87;1.77;;;26.60;82.60;;;;;;5000916;28;20455;-89
2022/07/05 10:39:03;;;;;;;2.10;1.90;;;26.80;84.00;;;;;;5002891;28;20439;-89
2022/07/05 10:41:48;;;;;;;2.40;1.50;;;27.20;79.40;;;;;;5000614;28;20802;-90
2022/07/05 10:44:26;;;;;;;2.57;1.60;;;26.40;78.60;;;;;;4994666;28;20214;-88
2022/07/05 10:47:10;;;;;;;2.40;1.70;;;26.00;81.80;;;;;;5015231;28;20431;-89
2022/07/05 10:49:37;;;;;;;1.83;1.73;;;26.70;80.10;;;;;;5001369;28;20430;-89
2022/07/05 10:52:03;;;;;;;1.77;1.67;;;25.20;80.90;;;;;;4994983;28;20495;-89
2022/07/05 10:54:29;;;;;;;3.30;2.00;;;25.70;84.60;;;;;;5001517;28;20478;-87
2022/07/05 10:57:23;;;;;;;1.97;1.87;;;26.40;79.50;;;;;;5004133;28;20466;-88
2022/07/05 11:00:06;;;;;;;2.03;1.93;;;26.90;81.60;;;;;;5003505;28;20681;-89
2022/07/05 11:02:34;;;;;;;2.10;1.73;;;27.20;71.40;;;;;;5000684;28;20973;-88
2022/07/05 11:05:20;;;;;;;1.70;1.60;;;27.20;73.20;;;;;;5015804;28;20530;-88
2022/07/05 11:08:20;;;;;;;1.73;1.57;;;27.60;70.10;;;;;;4998323;28;20470;-89
2022/07/05 11:11:33;;;;;;;2.10;1.43;;;28.00;70.80;;;;;;4997207;28;20462;-87
2022/07/05 11:14:21;;;;;;;2.70;1.50;;;26.20;64.70;;;;;;4942931;28;20453;-86
2022/07/05 11:17:15;;;;;;;1.60;1.30;;;25.90;68.30;;;;;;4991658;28;20430;-85
2022/07/05 11:20:05;;;;;;;3.10;1.43;;;24.70;70.90;;;;;;4997292;28;20435;-88
2022/07/05 11:22:31;;;;;;;2.90;1.60;;;24.40;71.30;;;;;;5004353;28;20483;-84
2022/07/05 11:25:14;;;;;;;1.50;1.40;;;24.40;71.30;;;;;;5002115;28;20430;-89
2022/07/05 11:28:18;;;;;;;1.70;1.60;;;25.30;69.70;;;;;;5006921;28;20533;-88
2022/07/05 11:31:04;;;;;;;2.20;1.70;;;25.90;71.10;;;;;;5015371;28;21771;-87
2022/07/05 11:33:36;;;;;;;1.53;1.43;;;26.50;66.90;;;;;;5006825;28;21518;-86
2022/07/05 11:36:07;;;;;;;2.07;1.50;;;27.50;72.50;;;;;;5005795;28;20844;-85
2022/07/05 11:38:33;;;;;;;1.60;1.50;;;27.10;67.60;;;;;;5000080;28;20446;-87
2022/07/05 11:41:15;;;;;;;1.50;1.40;;;26.50;69.40;;;;;;5004649;28;20442;-86
2022/07/05 11:43:45;;;;;;;3.07;1.87;;;25.50;72.20;;;;;;5009759;28;20215;-88
2022/07/05 11:46:12;;;;;;;1.43;1.43;;;25.80;68.80;;;;;;4985070;28;20486;-88
2022/07/05 11:49:01;;;;;;;2.40;1.63;;;26.00;73.70;;;;;;5022237;28;20493;-88
2022/07/05 11:51:28;;;;;;;1.70;1.60;;;26.80;72.70;;;;;;5021784;28;20478;-89
2022/07/05 11:53:53;;;;;;;2.23;1.30;;;28.30;70.80;;;;;;5026099;28;20439;-88
2022/07/05 11:56:37;;;;;;;2.73;1.53;;;28.30;61.80;;;;;;4995870;28;20461;-89
2022/07/05 11:59:17;;;;;;;1.77;1.60;;;28.80;60.90;;;;;;5017984;28;20200;-88
2022/07/05 12:01:44;;;;;;;1.53;1.37;;;29.50;66.00;;;;;;5008199;28;20529;-88
2022/07/05 12:04:10;;;;;;;3.67;1.70;;;30.80;63.90;;;;;;5010570;28;20438;-89
2022/07/05 12:06:42;;;;;;;1.77;1.50;;;29.40;69.30;;;;;;5007432;28;20434;-89
2022/07/05 12:09:07;;;;;;;1.40;1.30;;;27.80;65.80;;;;;;5020687;28;20177;-88
2022/07/05 12:14:24;;;;;;;2.20;1.20;;;28.30;68.30;;;;;;5017600;28;20188;-88
2022/07/05 12:17:10;;;;;;;1.73;1.30;;;28.10;66.60;;;;;;5022534;28;21032;-89
2022/07/05 12:19:45;;;;;;;2.13;1.43;;;28.50;64.60;;;;;;4991232;28;20474;-89
2022/07/05 12:22:19;;;;;;;1.73;1.37;;;28.50;62.60;;;;;;5025260;28;20450;-89
2022/07/05 12:25:11;;;;;;;1.93;1.80;;;28.60;68.40;;;;;;5003511;28;20496;-90
2022/07/05 12:27:50;;;;;;;3.47;1.67;;;29.00;66.00;;;;;;5011215;28;20431;-89
2022/07/05 12:30:16;;;;;;;1.80;1.47;;;29.60;63.70;;;;;;5027798;28;21014;-88
2022/07/05 12:33:03;;;;;;;3.33;1.40;;;29.50;65.60;;;;;;5005643;28;20470;-90
2022/07/05 12:35:40;;;;;;;1.63;1.53;;;29.40;64.90;;;;;;5019345;28;20442;-90
2022/07/05 12:38:07;;;;;;;1.50;1.40;;;29.40;62.70;;;;;;5004494;28;20438;-89
2022/07/05 12:40:34;;;;;;;4.50;1.40;;;28.80;60.80;;;;;;5000984;28;20521;-90
2022/07/05 12:43:16;;;;;;;1.50;1.40;;;28.70;63.90;;;;;;4999533;28;20738;-91
2022/07/05 12:45:58;;;;;;;2.37;1.70;;;27.50;61.10;;;;;;5008306;28;20967;-89
2022/07/05 12:48:40;;;;;;;4.80;1.50;;;26.90;64.40;;;;;;5020860;28;20915;-89
2022/07/05 12:51:10;;;;;;;1.53;1.43;;;28.40;71.50;;;;;;5007917;28;20473;-87
2022/07/05 12:59:16;;;;;;;1.80;1.70;;;29.20;64.90;;;;;;5017946;28;20446;-88
2022/07/05 13:01:43;;;;;;;1.47;1.20;;;28.80;61.90;;;;;;5015608;28;20474;-90
2022/07/05 13:04:31;;;;;;;1.90;1.60;;;28.40;66.10;;;;;;5008737;28;20431;-90
2022/07/05 13:07:54;;;;;;;6.73;1.70;;;30.40;67.20;;;;;;5009995;28;20439;-93
2022/07/05 13:10:46;;;;;;;1.77;1.60;;;29.90;62.70;;;;;;5022980;28;20442;-91
2022/07/05 13:13:16;;;;;;;4.17;1.60;;;30.00;63.40;;;;;;5010440;28;20823;-93
2022/07/05 13:15:42;;;;;;;3.07;1.57;;;30.00;68.80;;;;;;5009611;28;20945;-91
2022/07/05 13:18:07;;;;;;;1.97;1.50;;;30.70;64.10;;;;;;4991118;28;20451;-92
2022/07/05 13:20:35;;;;;;;1.67;1.40;;;29.10;62.00;;;;;;4997552;28;20646;-90
2022/07/05 13:23:01;;;;;;;2.43;2.00;;;28.80;59.50;;;;;;5006306;28;20212;-92
2022/07/05 13:25:27;;;;;;;2.80;1.63;;;27.80;66.70;;;;;;4996185;28;20588;-90
2022/07/05 13:27:53;;;;;;;1.67;1.40;;;29.80;66.70;;;;;;5006988;28;20184;-90
2022/07/05 13:30:20;;;;;;;1.60;1.50;;;28.30;59.70;;;;;;5006058;28;20172;-91
2022/07/05 13:32:45;;;;;;;1.70;1.60;;;30.30;66.20;;;;;;5010931;28;21050;-89
2022/07/05 13:35:11;;;;;;;7.40;2.30;;;29.70;66.80;;;;;;5003594;28;20435;-92
2022/07/05 13:37:39;;;;;;;1.70;1.53;;;30.30;59.80;;;;;;5038149;28;20180;-93
2022/07/05 13:40:08;;;;;;;1.80;1.70;;;29.70;62.40;;;;;;5008830;28;20181;-93
2022/07/05 13:42:34;;;;;;;8.50;2.20;;;27.20;61.20;;;;;;5007999;28;20470;-89
2022/07/05 13:45:04;;;;;;;1.83;1.73;;;25.70;64.40;;;;;;5002823;28;20443;-91
2022/07/05 13:47:30;;;;;;;2.20;1.80;;;27.40;66.50;;;;;;5034882;28;20188;-91
2022/07/05 13:52:51;;;;;;;3.37;1.60;;;27.20;68.80;;;;;;5023101;28;20543;-91
2022/07/05 13:55:42;;;;;;;1.50;1.47;;;26.90;66.20;;;;;;5025924;28;20505;-91
2022/07/05 13:58:09;;;;;;;1.50;1.40;;;28.70;77.90;;;;;;5009071;28;21698;-92
2022/07/05 14:00:35;;;;;;;2.00;1.73;;;32.30;68.60;;;;;;4978733;28;20449;-92
2022/07/05 14:03:07;;;;;;;1.83;1.73;;;33.40;61.40;;;;;;5012079;28;20573;-92
2022/07/05 14:05:37;;;;;;;3.23;1.80;;;34.50;62.10;;;;;;5036463;28;20445;-92
2022/07/05 14:08:26;;;;;;;1.67;1.57;;;35.90;52.60;;;;;;5013367;28;20479;-92
2022/07/05 14:10:54;;;;;;;2.90;1.60;;;39.00;51.40;;;;;;5025930;28;20474;-92
2022/07/05 14:13:32;;;;;;;1.80;1.70;;;38.50;44.10;;;;;;5016283;28;20450;-94
2022/07/05 14:15:58;;;;;;;1.70;1.50;;;38.60;44.70;;;;;;5004554;28;20436;-91
2022/07/05 14:18:24;;;;;;;2.00;1.60;;;36.00;48.20;;;;;;5000461;28;20438;-93
2022/07/05 14:20:54;;;;;;;2.80;1.70;;;37.20;48.10;;;;;;5004726;28;20187;-93
2022/07/05 14:23:32;;;;;;;2.43;1.70;;;36.00;46.20;;;;;;4991148;28;20462;-91
2022/07/05 14:25:59;;;;;;;1.60;1.30;;;36.40;46.90;;;;;;5024567;28;20952;-92
2022/07/05 14:28:24;;;;;;;1.60;1.50;;;36.30;45.10;;;;;;4995982;28;20204;-92
2022/07/05 14:30:51;;;;;;;5.13;1.60;;;36.50;48.90;;;;;;5000665;28;21004;-91
2022/07/05 14:33:26;;;;;;;2.30;1.70;;;36.80;45.80;;;;;;4996834;28;20246;-92
2022/07/05 14:35:59;;;;;;;3.00;1.70;;;36.60;45.40;;;;;;4993740;28;20438;-91
2022/07/05 14:38:25;;;;;;;1.60;1.43;;;40.00;45.00;;;;;;5022817;28;20180;-93
2022/07/05 14:40:51;;;;;;;1.37;1.27;;;40.10;41.50;;;;;;5007871;28;20271;-91
2022/07/05 14:43:16;;;;;;;2.07;1.83;;;36.50;43.20;;;;;;5009144;28;20198;-93
2022/07/05 14:45:47;;;;;;;2.13;1.30;;;39.40;47.70;;;;;;5006055;28;20180;-94
2022/07/05 14:48:13;;;;;;;1.60;1.40;;;40.50;45.50;;;;;;5005870;28;20859;-93
2022/07/05 14:50:55;;;;;;;2.93;1.50;;;38.10;45.00;;;;;;5022704;28;20214;-93
2022/07/05 14:53:23;;;;;;;23.33;10.50;;;36.80;46.70;;;;;;5003698;28;20195;-96
2022/07/05 14:55:49;;;;;;;8.03;4.83;;;38.60;45.60;;;;;;5025935;28;20187;-96
2022/07/05 14:58:14;;;;;;;14.07;7.73;;;40.80;47.70;;;;;;4993470;28;20211;-91
2022/07/05 15:00:40;;;;;;;10.35;5.25;;;42.20;42.70;;;;;;4990051;28;20176;-93
2022/07/05 15:03:08;;;;;;;2.35;2.03;;;42.50;41.70;;;;;;5011847;28;20539;-92
2022/07/05 15:05:34;;;;;;;2.83;1.50;;;44.10;42.00;;;;;;4992453;28;20176;-93
2022/07/05 15:07:59;;;;;;;2.88;1.50;;;41.80;37.20;;;;;;4993317;28;20206;-93
2022/07/05 15:11:01;;;;;;;1.48;1.30;;;42.50;38.80;;;;;;4994922;28;20681;-95
2022/07/05 15:13:27;;;;;;;4.60;1.63;;;39.20;38.00;;;;;;4996618;28;20282;-91
2022/07/05 15:15:54;;;;;;;1.67;1.40;;;38.50;42.40;;;;;;4987057;28;20266;-92
2022/07/05 15:18:24;;;;;;;1.77;1.58;;;39.70;40.00;;;;;;4978947;28;20198;-91
2022/07/05 15:20:53;;;;;;;1.90;1.80;;;39.70;40.50;;;;;;5009584;28;20198;-92
2022/07/05 15:23:29;;;;;;;3.27;1.73;;;38.60;38.10;;;;;;4994860;28;21823;-92
2022/07/05 15:25:57;;;;;;;1.85;1.75;;;39.90;41.60;;;;;;5004195;28;20195;-95
2022/07/05 15:28:23;;;;;;;1.58;1.48;;;42.60;38.40;;;;;;4979684;28;20278;-93
2022/07/05 15:31:11;;;;;;;1.70;1.60;;;40.30;37.00;;;;;;4991593;28;20184;-92
2022/07/05 15:33:36;;;;;;;1.97;1.80;;;38.30;39.30;;;;;;5014762;28;20183;-92
2022/07/05 15:36:10;;;;;;;3.38;1.80;;;40.30;39.50;;;;;;4999433;28;20180;-94
2022/07/05 15:38:53;;;;;;;1.70;1.50;;;41.40;37.80;;;;;;5014072;28;20183;-93
2022/07/05 15:41:27;;;;;;;2.87;1.80;;;38.40;39.10;;;;;;5012834;28;20253;-92
2022/07/05 15:43:56;;;;;;;2.43;1.60;;;38.20;40.90;;;;;;5013344;28;20195;-92
2022/07/05 15:46:59;;;;;;;3.87;1.50;;;39.00;39.70;;;;;;4992552;28;20183;-91
2022/07/05 15:49:13;;;;;;;1.80;1.70;;;40.40;38.70;;;;;;5014253;28;20821;-93
2022/07/05 15:51:48;;;;;;;1.60;1.50;;;38.90;39.90;;;;;;4997368;28;20503;-94
2022/07/05 15:55:11;;;;;;;2.00;1.90;;;39.20;37.70;;;;;;5010443;28;20183;-93
2022/07/05 15:57:37;;;;;;;2.07;1.67;;;36.20;39.00;;;;;;4997159;28;20455;-93
2022/07/05 16:00:05;;;;;;;2.70;1.80;;;33.60;41.00;;;;;;4991392;28;21106;-93
2022/07/05 16:02:32;;;;;;;1.97;1.70;;;34.70;43.90;;;;;;4986820;28;20191;-96
2022/07/05 16:04:58;;;;;;;5.27;2.10;;;37.60;40.60;;;;;;4984168;28;20441;-93
2022/07/05 16:07:23;;;;;;;2.13;2.03;;;37.90;39.90;;;;;;4984800;28;20450;-92